createdAt,value
2018-09-22T00:01:34.376Z,2.33
2018-09-22T00:04:03.372Z,2.27
2018-09-22T00:06:32.216Z,3.37
2018-09-22T00:09:00.994Z,3.10
2018-09-22T00:11:30.243Z,2.27
2018-09-22T00:13:59.016Z,3.30
2018-09-22T00:16:27.901Z,2.70
2018-09-22T00:18:56.823Z,2.43
2018-09-22T00:21:25.708Z,2.40
2018-09-22T00:23:54.469Z,2.00
2018-09-22T00:26:23.541Z,2.30
2018-09-22T00:28:52.472Z,2.33
2018-09-22T00:31:21.286Z,2.40
2018-09-22T00:33:50.231Z,2.30
2018-09-22T00:36:19.185Z,2.37
2018-09-22T00:38:49.061Z,2.50
2018-09-22T00:41:17.869Z,2.37
2018-09-22T00:43:46.769Z,2.30
2018-09-22T00:46:15.497Z,2.27
2018-09-22T00:48:44.528Z,2.77
2018-09-22T00:51:14.928Z,3.10
2018-09-22T00:53:44.912Z,2.37
2018-09-22T00:56:13.854Z,2.60
2018-09-22T00:58:43.243Z,2.03
2018-09-22T01:01:12.049Z,2.10
2018-09-22T01:03:40.986Z,2.83
2018-09-22T01:06:09.779Z,2.13
2018-09-22T01:08:38.900Z,2.30
2018-09-22T01:11:07.779Z,1.93
2018-09-22T01:13:36.734Z,2.07
2018-09-22T01:16:05.861Z,2.00
2018-09-22T01:18:35.357Z,2.00
2018-09-22T01:21:04.170Z,2.40
2018-09-22T01:23:32.936Z,2.13
2018-09-22T01:26:01.813Z,2.10
2018-09-22T01:28:31.325Z,2.20
2018-09-22T01:31:00.438Z,2.50
2018-09-22T01:33:29.325Z,2.20
2018-09-22T01:35:58.917Z,1.93
2018-09-22T01:38:27.924Z,2.27
2018-09-22T01:40:57.393Z,2.37
2018-09-22T01:43:26.267Z,1.93
2018-09-22T01:45:55.025Z,2.00
2018-09-22T01:48:23.952Z,1.90
2018-09-22T01:50:53.348Z,1.93
2018-09-22T01:53:22.157Z,1.93
2018-09-22T01:55:50.950Z,2.33
2018-09-22T01:58:19.908Z,1.87
2018-09-22T02:00:49.249Z,2.20
2018-09-22T02:03:18.309Z,1.83
2018-09-22T02:05:47.221Z,2.00
2018-09-22T02:08:15.916Z,1.80
2018-09-22T02:10:44.773Z,1.90
2018-09-22T02:13:13.572Z,2.10
2018-09-22T02:15:42.584Z,2.20
2018-09-22T02:18:11.406Z,2.30
2018-09-22T02:20:41.051Z,4.10
2018-09-22T02:23:09.836Z,2.10
2018-09-22T02:25:38.633Z,2.00
2018-09-22T02:28:07.613Z,2.30
2018-09-22T02:30:36.483Z,2.20
2018-09-22T02:33:05.291Z,2.03
2018-09-22T02:35:34.112Z,1.80
2018-09-22T02:38:03.745Z,1.90
2018-09-22T02:40:32.735Z,2.20
2018-09-22T02:43:01.775Z,2.00
2018-09-22T02:45:30.560Z,2.10
2018-09-22T02:47:59.560Z,2.37
2018-09-22T02:50:28.694Z,1.90
2018-09-22T02:52:58.077Z,2.00
2018-09-22T02:55:26.834Z,1.97
2018-09-22T02:57:55.676Z,1.90
2018-09-22T03:00:25.176Z,1.77
2018-09-22T03:02:54.018Z,1.80
2018-09-22T03:05:22.908Z,2.33
2018-09-22T03:07:53.498Z,2.30
2018-09-22T03:10:22.336Z,2.10
2018-09-22T03:12:51.864Z,2.20
2018-09-22T03:15:20.789Z,2.03
2018-09-22T03:17:49.472Z,2.00
2018-09-22T03:20:18.417Z,2.47
2018-09-22T03:22:47.301Z,1.90
2018-09-22T03:25:16.093Z,2.03
2018-09-22T03:27:45.169Z,2.53
2018-09-22T03:30:14.046Z,1.73
2018-09-22T03:32:42.908Z,2.00
2018-09-22T03:35:11.823Z,2.80
2018-09-22T03:37:41.121Z,2.10
2018-09-22T03:40:10.277Z,2.10
2018-09-22T03:42:39.772Z,2.17
2018-09-22T03:45:08.621Z,2.00
2018-09-22T03:47:38.108Z,2.23
2018-09-22T03:50:06.939Z,2.10
2018-09-22T03:52:36.463Z,1.90
2018-09-22T03:55:05.377Z,1.80
2018-09-22T03:57:34.988Z,2.37
2018-09-22T04:00:04.116Z,2.00
2018-09-22T04:02:32.889Z,2.03
2018-09-22T04:05:01.687Z,1.90
2018-09-22T04:07:30.467Z,2.10
2018-09-22T04:10:00.049Z,2.20
2018-09-22T04:12:29.263Z,1.83
2018-09-22T04:14:58.094Z,1.80
2018-09-22T04:17:26.926Z,2.50
2018-09-22T04:19:55.940Z,2.00
2018-09-22T04:22:25.416Z,2.00
2018-09-22T04:24:54.302Z,1.87
2018-09-22T04:27:23.747Z,2.00
2018-09-22T04:29:52.708Z,1.90
2018-09-22T04:32:22.207Z,1.77
2018-09-22T04:34:51.139Z,2.00
2018-09-22T04:37:20.629Z,2.27
2018-09-22T04:39:49.709Z,2.73
2018-09-22T04:42:20.089Z,2.63
2018-09-22T04:44:49.180Z,2.13
2018-09-22T04:47:18.107Z,2.27
2018-09-22T04:49:47.432Z,2.03
2018-09-22T04:52:16.377Z,2.13
2018-09-22T04:54:45.447Z,2.10
2018-09-22T04:57:20.077Z,3.00
2018-09-22T05:00:10.733Z,1.90
2018-09-22T05:02:43.660Z,2.07
2018-09-22T05:05:14.542Z,1.70
2018-09-22T05:07:43.423Z,2.00
2018-09-22T05:10:12.553Z,1.97
2018-09-22T05:12:41.523Z,1.97
2018-09-22T05:15:11.353Z,1.90
2018-09-22T05:17:40.408Z,1.90
2018-09-22T05:20:09.275Z,2.00
2018-09-22T05:22:38.109Z,2.07
2018-09-22T05:25:07.021Z,1.80
2018-09-22T05:27:47.889Z,1.60
2018-09-22T05:30:16.864Z,2.03
2018-09-22T05:32:45.694Z,2.00
2018-09-22T05:35:15.133Z,2.43
2018-09-22T05:37:43.927Z,2.10
2018-09-22T05:40:12.752Z,2.33
2018-09-22T05:42:41.538Z,2.20
2018-09-22T05:45:10.588Z,2.10
2018-09-22T05:47:44.790Z,1.80
2018-09-22T05:50:13.778Z,2.93
2018-09-22T05:52:43.251Z,2.47
2018-09-22T05:55:12.425Z,2.47
2018-09-22T05:57:41.637Z,2.03
2018-09-22T06:00:10.176Z,2.53
2018-09-22T06:02:39.670Z,2.00
2018-09-22T06:05:09.421Z,2.30
2018-09-22T06:07:38.457Z,2.47
2018-09-22T06:10:07.701Z,4.50
2018-09-22T06:12:36.597Z,3.40
2018-09-22T06:15:06.037Z,5.00
2018-09-22T06:17:35.073Z,4.47
2018-09-22T06:20:04.062Z,2.90
2018-09-22T06:22:32.903Z,2.40
2018-09-22T06:25:01.744Z,2.53
2018-09-22T06:27:30.577Z,2.90
2018-09-22T06:29:59.426Z,3.17
2018-09-22T06:32:28.197Z,2.10
2018-09-22T06:34:57.572Z,3.03
2018-09-22T06:37:26.594Z,2.10
2018-09-22T06:39:55.443Z,1.83
2018-09-22T06:42:24.470Z,1.80
2018-09-22T06:44:53.854Z,2.50
2018-09-22T06:47:23.069Z,2.00
2018-09-22T06:49:51.985Z,2.40
2018-09-22T06:52:20.922Z,2.00
2018-09-22T06:54:49.919Z,2.03
2018-09-22T06:57:19.030Z,2.33
2018-09-22T06:59:47.948Z,2.13
2018-09-22T07:02:16.854Z,2.37
2018-09-22T07:04:45.727Z,2.50
2018-09-22T07:07:14.637Z,2.63
2018-09-22T07:09:43.478Z,2.60
2018-09-22T07:12:12.412Z,2.40
2018-09-22T07:14:41.405Z,4.20
2018-09-22T07:17:10.306Z,4.00
2018-09-22T07:19:39.836Z,3.33
2018-09-22T07:22:14.212Z,3.20
2018-09-22T07:24:43.097Z,2.90
2018-09-22T07:27:11.979Z,2.80
2018-09-22T07:29:40.917Z,2.13
2018-09-22T07:32:09.764Z,2.80
2018-09-22T07:34:38.620Z,3.57
2018-09-22T07:37:07.562Z,3.50
2018-09-22T07:39:37.009Z,2.47
2018-09-22T07:42:05.982Z,2.40
2018-09-22T07:44:34.946Z,2.47
2018-09-22T07:47:03.819Z,2.20
2018-09-22T07:49:32.801Z,2.33
2018-09-22T07:52:01.911Z,2.63
2018-09-22T07:54:30.828Z,2.47
2018-09-22T07:56:59.666Z,2.43
2018-09-22T07:59:28.644Z,2.10
2018-09-22T08:01:57.579Z,2.20
2018-09-22T08:04:26.379Z,2.30
2018-09-22T08:06:55.410Z,1.80
2018-09-22T08:09:24.519Z,2.27
2018-09-22T08:11:53.653Z,2.23
2018-09-22T08:14:22.524Z,2.13
2018-09-22T08:16:51.380Z,2.37
2018-09-22T08:19:20.400Z,1.90
2018-09-22T08:21:49.928Z,2.53
2018-09-22T08:24:18.885Z,2.10
2018-09-22T08:26:47.850Z,1.80
2018-09-22T08:29:16.675Z,1.87
2018-09-22T08:31:45.621Z,2.17
2018-09-22T08:34:14.549Z,1.90
2018-09-22T08:36:43.402Z,2.40
2018-09-22T08:39:12.971Z,2.00
2018-09-22T08:41:42.506Z,2.00
2018-09-22T08:44:11.373Z,1.87
2018-09-22T08:46:40.848Z,1.80
2018-09-22T08:49:10.365Z,2.83
2018-09-22T08:51:39.222Z,1.90
2018-09-22T08:54:08.269Z,1.90
2018-09-22T08:56:37.077Z,1.83
2018-09-22T08:59:06.111Z,1.80
2018-09-22T09:01:35.190Z,2.50
2018-09-22T09:04:04.498Z,2.00
2018-09-22T09:06:33.533Z,1.80
2018-09-22T09:09:02.358Z,1.90
2018-09-22T09:11:31.419Z,1.80
2018-09-22T09:14:00.248Z,2.00
2018-09-22T09:16:29.791Z,1.97
2018-09-22T09:18:58.604Z,2.20
2018-09-22T09:21:27.392Z,1.93
2018-09-22T09:23:56.273Z,1.77
2018-09-22T09:26:25.308Z,2.27
2018-09-22T09:28:54.946Z,2.17
2018-09-22T09:31:23.737Z,2.17
2018-09-22T09:33:52.714Z,1.80
2018-09-22T09:36:21.589Z,2.13
2018-09-22T09:38:57.043Z,2.20
2018-09-22T09:41:25.894Z,1.90
2018-09-22T09:43:54.779Z,2.10
2018-09-22T09:46:24.077Z,1.97
2018-09-22T09:48:52.912Z,2.00
2018-09-22T09:51:21.851Z,2.60
2018-09-22T09:53:50.667Z,1.90
2018-09-22T09:56:20.556Z,1.60
2018-09-22T09:58:49.431Z,2.10
2018-09-22T10:01:18.332Z,1.80
2018-09-22T10:03:47.112Z,2.20
2018-09-22T10:06:16.135Z,1.97
2018-09-22T10:08:45.087Z,2.00
2018-09-22T10:11:14.593Z,1.83
2018-09-22T10:13:43.487Z,1.80
2018-09-22T10:16:12.283Z,1.87
2018-09-22T10:18:41.059Z,1.43
2018-09-22T10:21:09.876Z,1.63
2018-09-22T10:23:38.578Z,2.10
2018-09-22T10:26:08.049Z,1.63
2018-09-22T10:28:37.246Z,2.40
2018-09-22T10:31:06.354Z,1.67
2018-09-22T10:33:35.125Z,1.87
2018-09-22T10:36:05.000Z,1.63
2018-09-22T10:38:33.730Z,1.80
2018-09-22T10:41:02.620Z,1.80
2018-09-22T10:43:31.500Z,1.83
2018-09-22T10:46:00.307Z,1.70
2018-09-22T10:48:29.700Z,1.97
2018-09-22T10:50:58.573Z,2.20
2018-09-22T10:53:27.685Z,2.17
2018-09-22T10:55:56.635Z,1.90
2018-09-22T10:58:25.600Z,1.90
2018-09-22T11:00:55.065Z,1.90
2018-09-22T11:03:24.527Z,1.43
2018-09-22T11:05:53.594Z,1.90
2018-09-22T11:08:22.556Z,2.30
2018-09-22T11:10:52.129Z,1.77
2018-09-22T11:13:20.957Z,1.73
2018-09-22T11:15:50.099Z,1.80
2018-09-22T11:18:18.996Z,1.70
2018-09-22T11:20:48.011Z,1.57
2018-09-22T11:23:16.755Z,2.30
2018-09-22T11:25:58.552Z,1.63
2018-09-22T11:28:27.316Z,1.80
2018-09-22T11:30:56.580Z,2.00
2018-09-22T11:33:25.808Z,1.70
2018-09-22T11:35:54.720Z,1.47
2018-09-22T11:38:23.669Z,3.57
2018-09-22T11:40:52.545Z,2.33
2018-09-22T11:43:21.445Z,2.00
2018-09-22T11:45:50.743Z,3.00
2018-09-22T11:48:19.596Z,2.27
2018-09-22T11:50:48.872Z,1.57
2018-09-22T11:53:18.738Z,2.33
2018-09-22T11:55:47.544Z,1.50
2018-09-22T11:58:16.366Z,1.87
2018-09-22T12:00:45.398Z,1.40
2018-09-22T12:03:14.477Z,1.57
2018-09-22T12:05:43.416Z,1.90
2018-09-22T12:08:12.366Z,1.87
2018-09-22T12:10:41.286Z,1.33
2018-09-22T12:13:10.296Z,2.03
2018-09-22T12:15:39.816Z,2.50
2018-09-22T12:18:08.952Z,2.40
2018-09-22T12:20:37.915Z,3.03
2018-09-22T12:23:06.699Z,3.30
2018-09-22T12:25:35.528Z,2.60
2018-09-22T12:28:04.451Z,1.50
2018-09-22T12:30:33.896Z,1.90
2018-09-22T12:33:03.257Z,1.77
2018-09-22T12:35:32.282Z,1.57
2018-09-22T12:38:01.752Z,1.70
2018-09-22T12:40:31.098Z,1.70
2018-09-22T12:42:59.919Z,1.83
2018-09-22T12:45:28.796Z,1.70
2018-09-22T12:47:58.308Z,1.77
2018-09-22T12:50:27.767Z,1.40
2018-09-22T12:52:56.794Z,1.83
2018-09-22T12:55:26.278Z,1.53
2018-09-22T12:57:55.058Z,3.30
2018-09-22T13:00:23.870Z,2.37
2018-09-22T13:02:52.626Z,1.80
2018-09-22T13:05:21.471Z,1.63
2018-09-22T13:07:50.840Z,1.60
2018-09-22T13:10:19.628Z,1.80
2018-09-22T13:12:48.968Z,1.67
2018-09-22T13:15:17.836Z,1.63
2018-09-22T13:17:47.469Z,1.73
2018-09-22T13:20:16.387Z,1.80
2018-09-22T13:22:45.448Z,1.40
2018-09-22T13:25:14.291Z,1.73
2018-09-22T13:27:43.299Z,1.87
2018-09-22T13:30:12.162Z,1.43
2018-09-22T13:32:40.942Z,1.80
2018-09-22T13:35:10.001Z,1.60
2018-09-22T13:37:38.756Z,1.80
2018-09-22T13:40:07.630Z,1.50
2018-09-22T13:42:41.590Z,1.70
2018-09-22T13:45:11.481Z,1.80
2018-09-22T13:47:40.256Z,1.37
2018-09-22T13:50:09.109Z,1.70
2018-09-22T13:52:38.448Z,1.60
2018-09-22T13:55:07.754Z,2.07
2018-09-22T13:57:36.493Z,2.30
2018-09-22T14:00:05.348Z,2.77
2018-09-22T14:02:34.371Z,2.00
2018-09-22T14:05:03.560Z,2.40
2018-09-22T14:07:33.068Z,1.80
2018-09-22T14:10:02.140Z,1.60
2018-09-22T14:12:31.028Z,1.63
2018-09-22T14:15:00.975Z,2.00
2018-09-22T14:17:29.826Z,2.07
2018-09-22T14:19:58.629Z,2.00
2018-09-22T14:22:27.388Z,2.47
2018-09-22T14:24:56.291Z,2.00
2018-09-22T14:27:25.827Z,2.10
2018-09-22T14:29:54.867Z,2.17
2018-09-22T14:32:23.935Z,2.20
2018-09-22T14:34:53.416Z,9.37
2018-09-22T14:37:22.325Z,4.07
2018-09-22T14:39:51.127Z,2.30
2018-09-22T14:42:26.945Z,1.73
2018-09-22T14:44:55.765Z,1.93
2018-09-22T14:47:24.563Z,2.00
2018-09-22T14:49:53.497Z,2.00
2018-09-22T14:52:22.450Z,1.90
2018-09-22T14:54:51.306Z,1.80
2018-09-22T14:57:20.219Z,2.03
2018-09-22T14:59:49.141Z,1.80
2018-09-22T15:02:17.933Z,1.77
2018-09-22T15:04:46.950Z,2.00
2018-09-22T15:07:15.744Z,1.97
2018-09-22T15:09:44.575Z,2.90
2018-09-22T15:12:13.653Z,2.40
2018-09-22T15:14:42.808Z,1.87
2018-09-22T15:17:21.013Z,1.80
2018-09-22T15:19:49.873Z,2.10
2018-09-22T15:22:18.713Z,2.60
2018-09-22T15:24:48.137Z,2.00
2018-09-22T15:27:16.901Z,1.67
2018-09-22T15:29:45.932Z,2.57
2018-09-22T15:32:14.880Z,1.67
2018-09-22T15:34:43.738Z,1.63
2018-09-22T15:37:12.696Z,2.00
2018-09-22T15:39:41.533Z,1.80
2018-09-22T15:42:10.368Z,1.80
2018-09-22T15:44:47.162Z,2.17
2018-09-22T15:47:16.035Z,2.13
2018-09-22T15:49:45.711Z,2.20
2018-09-22T15:52:14.636Z,1.97
2018-09-22T15:54:43.584Z,2.30
2018-09-22T15:57:13.382Z,2.07
2018-09-22T15:59:42.470Z,3.00
2018-09-22T16:02:11.833Z,3.67
2018-09-22T16:04:41.017Z,2.63
2018-09-22T16:07:09.862Z,2.70
2018-09-22T16:09:39.452Z,2.50
2018-09-22T16:12:08.569Z,2.70
2018-09-22T16:14:37.569Z,4.00
2018-09-22T16:17:07.233Z,3.60
2018-09-22T16:19:35.992Z,3.77
2018-09-22T16:22:05.664Z,2.43
2018-09-22T16:24:34.506Z,3.10
2018-09-22T16:27:03.993Z,3.20
2018-09-22T16:29:32.896Z,4.73
2018-09-22T16:32:01.631Z,2.30
2018-09-22T16:34:30.583Z,2.70
2018-09-22T16:37:00.443Z,3.33
2018-09-22T16:39:29.372Z,3.83
2018-09-22T16:41:58.337Z,2.80
2018-09-22T16:44:27.920Z,2.10
2018-09-22T16:46:56.829Z,2.20
2018-09-22T16:49:25.823Z,2.03
2018-09-22T16:51:54.686Z,2.07
2018-09-22T16:54:23.606Z,1.53
2018-09-22T16:56:52.628Z,1.50
2018-09-22T16:59:21.437Z,2.00
2018-09-22T17:01:50.370Z,2.37
2018-09-22T17:04:19.445Z,2.23
2018-09-22T17:06:48.313Z,2.10
2018-09-22T17:09:18.971Z,2.33
2018-09-22T17:11:51.874Z,2.33
2018-09-22T17:14:31.773Z,2.13
2018-09-22T17:17:00.829Z,1.83
2018-09-22T17:19:29.741Z,2.40
2018-09-22T17:21:58.764Z,2.07
2018-09-22T17:24:27.935Z,2.30
2018-09-22T17:26:56.739Z,2.13
2018-09-22T17:29:25.508Z,2.30
2018-09-22T17:31:55.436Z,2.30
2018-09-22T17:34:24.860Z,2.20
2018-09-22T17:36:53.985Z,2.57
2018-09-22T17:39:22.893Z,2.47
2018-09-22T17:41:53.065Z,2.20
2018-09-22T17:44:21.948Z,2.30
2018-09-22T17:46:50.875Z,1.90
2018-09-22T17:49:19.744Z,2.07
2018-09-22T17:51:48.663Z,2.27
2018-09-22T17:54:17.639Z,2.70
2018-09-22T17:56:46.541Z,2.07
2018-09-22T17:59:15.495Z,2.40
2018-09-22T18:01:44.520Z,2.60
2018-09-22T18:04:13.569Z,2.57
2018-09-22T18:06:43.677Z,2.90
2018-09-22T18:09:22.498Z,2.60
2018-09-22T18:11:51.502Z,2.20
2018-09-22T18:14:20.311Z,2.63
2018-09-22T18:16:50.180Z,3.00
2018-09-22T18:19:18.878Z,3.00
2018-09-22T18:21:47.802Z,2.73
2018-09-22T18:24:16.837Z,2.20
2018-09-22T18:26:45.802Z,2.17
2018-09-22T18:29:14.624Z,2.50
2018-09-22T18:31:43.705Z,2.50
2018-09-22T18:34:12.624Z,2.20
2018-09-22T18:36:41.572Z,2.50
2018-09-22T18:39:11.110Z,2.50
2018-09-22T18:41:40.032Z,2.20
2018-09-22T18:44:08.962Z,2.10
2018-09-22T18:46:37.865Z,2.57
2018-09-22T18:49:07.003Z,2.30
2018-09-22T18:51:35.910Z,2.00
2018-09-22T18:54:04.869Z,2.40
2018-09-22T18:56:33.878Z,2.40
2018-09-22T18:59:02.960Z,2.40
2018-09-22T19:01:32.082Z,2.23
2018-09-22T19:04:01.423Z,2.40
2018-09-22T19:06:30.331Z,2.57
2018-09-22T19:08:59.290Z,2.60
2018-09-22T19:11:28.140Z,2.53
2018-09-22T19:14:03.519Z,2.40
2018-09-22T19:16:35.903Z,2.33
2018-09-22T19:19:10.857Z,2.40
2018-09-22T19:21:45.062Z,2.40
2018-09-22T19:24:22.165Z,2.60
2018-09-22T19:26:55.377Z,2.30
2018-09-22T19:29:36.116Z,3.03
2018-09-22T19:32:21.607Z,2.50
2018-09-22T19:35:02.248Z,2.90
2018-09-22T19:37:36.842Z,2.53
2018-09-22T19:40:23.728Z,2.50
2018-09-22T19:42:59.382Z,3.27
2018-09-22T19:45:47.586Z,2.90
2018-09-22T19:48:24.419Z,3.10
2018-09-22T19:51:00.225Z,2.47
2018-09-22T19:53:29.171Z,2.80
2018-09-22T19:55:58.082Z,3.03
2018-09-22T19:58:27.020Z,3.30
2018-09-22T20:00:56.226Z,2.47
2018-09-22T20:03:25.383Z,2.80
2018-09-22T20:05:54.937Z,2.70
2018-09-22T20:08:23.976Z,2.60
2018-09-22T20:10:53.013Z,2.53
2018-09-22T20:13:22.425Z,2.80
2018-09-22T20:15:51.380Z,2.20
2018-09-22T20:18:20.377Z,2.63
2018-09-22T20:20:49.373Z,2.60
2018-09-22T20:23:18.375Z,2.80
2018-09-22T20:25:47.207Z,3.27
2018-09-22T20:28:16.116Z,2.40
2018-09-22T20:30:45.054Z,3.60
2018-09-22T20:33:14.308Z,3.73
2018-09-22T20:35:43.520Z,2.50
2018-09-22T20:38:12.316Z,2.27
2018-09-22T20:40:41.979Z,2.93
2018-09-22T20:43:10.835Z,3.07
2018-09-22T20:45:39.713Z,3.10
2018-09-22T20:48:08.818Z,3.23
2018-09-22T20:50:37.882Z,3.23
2018-09-22T20:53:06.994Z,3.03
2018-09-22T20:55:35.955Z,3.27
2018-09-22T20:58:05.796Z,3.20
2018-09-22T21:00:34.748Z,3.60
2018-09-22T21:03:03.918Z,3.60
2018-09-22T21:05:33.246Z,3.00
2018-09-22T21:08:02.119Z,2.83
2018-09-22T21:10:30.964Z,2.90
2018-09-22T21:12:59.911Z,3.00
2018-09-22T21:15:28.929Z,2.87
2018-09-22T21:17:58.521Z,3.30
2018-09-22T21:20:27.303Z,3.10
2018-09-22T21:22:56.137Z,2.70
2018-09-22T21:25:25.109Z,2.83
2018-09-22T21:27:53.945Z,4.03
2018-09-22T21:30:22.765Z,3.87
2018-09-22T21:32:51.740Z,4.00
2018-09-22T21:35:20.683Z,2.87
2018-09-22T21:37:49.532Z,3.27
2018-09-22T21:40:18.480Z,3.53
2018-09-22T21:42:47.654Z,3.80
2018-09-22T21:45:16.526Z,3.60
2018-09-22T21:47:45.365Z,3.90
2018-09-22T21:50:14.373Z,3.53
2018-09-22T21:52:43.348Z,3.90
2018-09-22T21:55:12.165Z,4.30
2018-09-22T21:57:41.058Z,3.70
2018-09-22T22:00:09.909Z,3.70
2018-09-22T22:02:39.518Z,3.50
2018-09-22T22:05:08.468Z,3.40
2018-09-22T22:07:37.949Z,3.30
2018-09-22T22:10:06.898Z,3.20
2018-09-22T22:12:35.704Z,3.40
2018-09-22T22:15:04.718Z,3.60
2018-09-22T22:17:33.461Z,3.03
2018-09-22T22:20:02.352Z,3.27
2018-09-22T22:22:31.276Z,2.90
2018-09-22T22:25:00.713Z,3.80
2018-09-22T22:27:29.605Z,3.10
2018-09-22T22:29:59.184Z,3.67
2018-09-22T22:32:28.000Z,2.93
2018-09-22T22:34:56.847Z,3.60
2018-09-22T22:37:25.699Z,3.20
2018-09-22T22:39:54.546Z,3.47
2018-09-22T22:42:24.202Z,3.50
2018-09-22T22:44:53.090Z,3.17
2018-09-22T22:47:21.854Z,3.50
2018-09-22T22:49:50.796Z,2.93
2018-09-22T22:52:20.225Z,3.50
2018-09-22T22:54:48.985Z,3.93
2018-09-22T22:57:17.862Z,3.47
2018-09-22T22:59:46.844Z,3.40
2018-09-22T23:02:15.649Z,3.10
2018-09-22T23:04:44.505Z,2.87
2018-09-22T23:07:13.501Z,3.47
2018-09-22T23:09:42.344Z,2.87
2018-09-22T23:12:11.177Z,3.50
2018-09-22T23:14:40.269Z,3.47
2018-09-22T23:17:09.109Z,4.00
2018-09-22T23:19:38.004Z,3.57
2018-09-22T23:22:06.913Z,3.50
2018-09-22T23:24:35.794Z,3.97
2018-09-22T23:27:04.657Z,4.00
2018-09-22T23:29:33.583Z,3.50
2018-09-22T23:32:02.433Z,4.03
2018-09-22T23:34:32.008Z,3.20
2018-09-22T23:37:00.928Z,3.43
2018-09-22T23:39:29.737Z,3.87
2018-09-22T23:41:58.711Z,5.07
2018-09-22T23:44:27.640Z,3.27
2018-09-22T23:46:57.133Z,3.20
2018-09-22T23:49:26.049Z,3.20
2018-09-22T23:51:54.827Z,3.17
2018-09-22T23:54:23.847Z,3.23
2018-09-22T23:56:52.939Z,2.90
2018-09-22T23:59:21.892Z,3.40
